createdAt,value
2018-05-23T00:01:48.355Z,15.60
2018-05-23T00:04:14.751Z,15.60
2018-05-23T00:06:41.946Z,15.40
2018-05-23T00:09:08.344Z,15.40
2018-05-23T00:11:35.474Z,15.40
2018-05-23T00:14:01.884Z,15.40
2018-05-23T00:16:28.280Z,15.50
2018-05-23T00:18:55.429Z,15.20
2018-05-23T00:21:21.854Z,15.20
2018-05-23T00:23:48.989Z,15.20
2018-05-23T00:26:15.383Z,15.20
2018-05-23T00:28:41.791Z,15.10
2018-05-23T00:31:08.924Z,15.10
2018-05-23T00:33:36.084Z,15.10
2018-05-23T00:36:02.523Z,15.10
2018-05-23T00:38:28.922Z,15.20
2018-05-23T00:40:55.366Z,15.10
2018-05-23T00:43:22.494Z,15.10
2018-05-23T00:45:50.388Z,15.00
2018-05-23T00:48:17.547Z,14.90
2018-05-23T00:50:43.977Z,14.90
2018-05-23T00:53:10.388Z,14.90
2018-05-23T00:55:37.539Z,14.80
2018-05-23T00:58:04.922Z,14.80
2018-05-23T01:00:31.323Z,14.80
2018-05-23T01:02:57.735Z,14.70
2018-05-23T01:05:24.153Z,14.60
2018-05-23T01:07:50.559Z,14.70
2018-05-23T01:10:16.944Z,14.70
2018-05-23T01:12:44.101Z,14.80
2018-05-23T01:15:11.273Z,14.80
2018-05-23T01:17:37.679Z,14.80
2018-05-23T01:20:04.088Z,14.90
2018-05-23T01:22:30.543Z,14.80
2018-05-23T01:24:56.986Z,14.80
2018-05-23T01:27:24.132Z,14.90
2018-05-23T01:29:50.560Z,14.90
2018-05-23T01:32:18.432Z,14.70
2018-05-23T01:34:44.828Z,14.70
2018-05-23T01:37:11.219Z,14.70
2018-05-23T01:39:38.358Z,14.70
2018-05-23T01:42:05.531Z,14.60
2018-05-23T01:44:31.923Z,14.60
2018-05-23T01:46:58.326Z,14.60
2018-05-23T01:49:26.368Z,14.50
2018-05-23T01:51:52.806Z,14.50
2018-05-23T01:54:19.237Z,14.40
2018-05-23T01:56:45.673Z,14.30
2018-05-23T01:59:12.106Z,14.40
2018-05-23T02:01:38.585Z,14.50
2018-05-23T02:04:05.013Z,14.50
2018-05-23T02:06:31.439Z,14.60
2018-05-23T02:08:57.841Z,14.70
2018-05-23T02:11:24.250Z,14.70
2018-05-23T02:13:51.392Z,14.60
2018-05-23T02:16:18.544Z,14.60
2018-05-23T02:18:45.711Z,14.60
2018-05-23T02:21:12.119Z,14.60
2018-05-23T02:23:39.264Z,14.80
2018-05-23T02:26:06.431Z,14.70
2018-05-23T02:28:32.844Z,14.60
2018-05-23T02:30:59.277Z,14.70
2018-05-23T02:33:25.684Z,14.80
2018-05-23T02:35:52.094Z,14.70
2018-05-23T02:38:18.488Z,14.80
2018-05-23T02:40:45.641Z,15.10
2018-05-23T02:43:12.794Z,15.20
2018-05-23T02:45:39.194Z,15.20
2018-05-23T02:48:05.592Z,15.10
2018-05-23T02:50:32.016Z,15.20
2018-05-23T02:52:59.174Z,15.20
2018-05-23T02:55:25.556Z,15.20
2018-05-23T02:57:51.942Z,15.20
2018-05-23T03:00:18.357Z,15.20
2018-05-23T03:02:44.780Z,15.30
2018-05-23T03:05:11.197Z,15.30
2018-05-23T03:07:38.345Z,15.50
2018-05-23T03:10:05.557Z,15.50
2018-05-23T03:12:31.960Z,15.40
2018-05-23T03:14:58.360Z,15.40
2018-05-23T03:17:25.518Z,15.50
2018-05-23T03:19:52.692Z,15.50
2018-05-23T03:22:19.116Z,15.40
2018-05-23T03:24:45.510Z,15.60
2018-05-23T03:27:11.894Z,15.60
2018-05-23T03:29:38.358Z,15.70
2018-05-23T03:32:04.756Z,15.70
2018-05-23T03:34:31.162Z,15.80
2018-05-23T03:36:58.324Z,15.90
2018-05-23T03:39:24.748Z,15.90
2018-05-23T03:41:51.912Z,16.00
2018-05-23T03:44:18.341Z,16.00
2018-05-23T03:46:45.484Z,16.20
2018-05-23T03:49:12.617Z,16.20
2018-05-23T03:51:39.773Z,16.30
2018-05-23T03:54:06.914Z,16.40
2018-05-23T03:56:33.305Z,16.40
2018-05-23T03:58:59.694Z,16.50
2018-05-23T04:01:39.123Z,16.60
2018-05-23T04:04:18.704Z,16.60
2018-05-23T04:06:54.178Z,16.60
2018-05-23T04:09:20.570Z,16.70
2018-05-23T04:11:47.028Z,16.80
2018-05-23T04:14:13.485Z,16.90
2018-05-23T04:16:39.875Z,17.00
2018-05-23T04:19:06.315Z,17.00
2018-05-23T04:21:32.740Z,17.00
2018-05-23T04:23:59.154Z,17.10
2018-05-23T04:26:26.305Z,17.20
2018-05-23T04:28:53.443Z,17.20
2018-05-23T04:31:20.593Z,17.20
2018-05-23T04:33:47.735Z,17.30
2018-05-23T04:36:14.892Z,17.40
2018-05-23T04:38:42.036Z,17.30
2018-05-23T04:41:09.463Z,17.40
2018-05-23T04:43:35.863Z,17.40
2018-05-23T04:46:02.318Z,17.50
2018-05-23T04:48:28.719Z,17.50
2018-05-23T04:50:55.110Z,17.40
2018-05-23T04:53:21.520Z,17.40
2018-05-23T04:55:47.917Z,17.50
2018-05-23T04:58:14.311Z,17.60
2018-05-23T05:00:47.474Z,17.60
2018-05-23T05:03:14.615Z,17.60
2018-05-23T05:05:41.039Z,17.60
2018-05-23T05:08:07.456Z,17.60
2018-05-23T05:10:34.608Z,17.60
2018-05-23T05:13:01.669Z,17.60
2018-05-23T05:15:28.196Z,17.50
2018-05-23T05:17:54.576Z,17.50
2018-05-23T05:20:20.987Z,17.50
2018-05-23T05:22:47.417Z,17.60
2018-05-23T05:25:13.827Z,17.70
2018-05-23T05:27:40.265Z,17.70
2018-05-23T05:30:06.723Z,17.70
2018-05-23T05:32:33.138Z,17.70
2018-05-23T05:35:00.301Z,17.60
2018-05-23T05:37:26.724Z,17.60
2018-05-23T05:39:53.834Z,17.70
2018-05-23T05:42:20.971Z,17.70
2018-05-23T05:44:48.110Z,17.90
2018-05-23T05:47:14.580Z,17.90
2018-05-23T05:49:41.001Z,18.00
2018-05-23T05:52:08.136Z,18.00
2018-05-23T05:54:34.574Z,18.00
2018-05-23T05:57:01.723Z,17.90
2018-05-23T05:59:28.123Z,17.90
2018-05-23T06:01:54.558Z,18.00
2018-05-23T06:04:20.997Z,18.00
2018-05-23T06:06:47.432Z,18.00
2018-05-23T06:09:13.874Z,18.00
2018-05-23T06:11:41.051Z,17.90
2018-05-23T06:14:07.500Z,17.90
2018-05-23T06:16:34.423Z,17.90
2018-05-23T06:19:00.876Z,17.80
2018-05-23T06:21:27.317Z,17.70
2018-05-23T06:23:53.749Z,17.70
2018-05-23T06:26:20.194Z,17.70
2018-05-23T06:28:47.382Z,17.90
2018-05-23T06:31:13.806Z,17.90
2018-05-23T06:33:40.327Z,17.70
2018-05-23T06:36:06.755Z,18.00
2018-05-23T06:38:33.204Z,18.00
2018-05-23T06:40:59.649Z,18.00
2018-05-23T06:43:26.186Z,18.00
2018-05-23T06:45:52.574Z,18.10
2018-05-23T06:48:19.006Z,18.20
2018-05-23T06:50:45.444Z,18.30
2018-05-23T06:53:11.866Z,18.20
2018-05-23T06:55:38.335Z,18.20
2018-05-23T06:58:04.746Z,18.30
2018-05-23T07:00:31.188Z,18.20
2018-05-23T07:02:57.627Z,18.30
2018-05-23T07:05:24.068Z,18.30
2018-05-23T07:07:50.498Z,18.30
2018-05-23T07:10:16.943Z,18.40
2018-05-23T07:12:43.364Z,18.50
2018-05-23T07:15:09.800Z,18.60
2018-05-23T07:17:36.212Z,18.60
2018-05-23T07:20:02.665Z,18.60
2018-05-23T07:22:29.089Z,18.50
2018-05-23T07:24:55.521Z,18.60
2018-05-23T07:27:22.083Z,18.40
2018-05-23T07:29:49.289Z,18.50
2018-05-23T07:32:15.718Z,18.50
2018-05-23T07:34:42.140Z,18.40
2018-05-23T07:37:08.565Z,18.60
2018-05-23T07:39:35.736Z,18.90
2018-05-23T07:42:02.176Z,18.90
2018-05-23T07:44:28.621Z,18.80
2018-05-23T07:46:55.063Z,18.80
2018-05-23T07:49:21.484Z,18.90
2018-05-23T07:51:47.933Z,18.90
2018-05-23T07:54:14.356Z,19.10
2018-05-23T07:56:40.835Z,19.20
2018-05-23T07:59:07.243Z,19.30
2018-05-23T08:01:33.659Z,19.40
2018-05-23T08:04:00.079Z,19.40
2018-05-23T08:06:26.509Z,19.40
2018-05-23T08:08:52.939Z,19.40
2018-05-23T08:11:19.359Z,19.60
2018-05-23T08:13:45.873Z,19.60
2018-05-23T08:16:13.047Z,19.80
2018-05-23T08:18:39.476Z,19.80
2018-05-23T08:21:05.901Z,19.90
2018-05-23T08:23:33.086Z,19.90
2018-05-23T08:25:59.531Z,19.90
2018-05-23T08:28:26.019Z,20.00
2018-05-23T08:30:53.192Z,20.20
2018-05-23T08:33:19.636Z,20.20
2018-05-23T08:35:46.061Z,20.30
2018-05-23T08:38:12.500Z,20.50
2018-05-23T08:40:38.934Z,20.60
2018-05-23T08:43:05.378Z,20.60
2018-05-23T08:45:33.355Z,20.80
2018-05-23T08:47:59.854Z,20.80
2018-05-23T08:50:26.317Z,20.40
2018-05-23T08:52:52.789Z,20.80
2018-05-23T08:55:20.010Z,21.20
2018-05-23T08:57:46.495Z,21.20
2018-05-23T09:00:12.935Z,21.40
2018-05-23T09:02:40.106Z,21.70
2018-05-23T09:05:06.592Z,21.70
2018-05-23T09:07:33.045Z,21.70
2018-05-23T09:09:59.513Z,21.80
2018-05-23T09:12:26.187Z,22.10
2018-05-23T09:14:53.169Z,21.90
2018-05-23T09:17:19.659Z,21.90
2018-05-23T09:19:46.126Z,21.80
2018-05-23T09:22:13.318Z,22.50
2018-05-23T09:24:39.784Z,22.50
2018-05-23T09:27:06.256Z,22.10
2018-05-23T09:29:32.770Z,22.20
2018-05-23T09:31:59.987Z,22.60
2018-05-23T09:34:26.521Z,22.60
2018-05-23T09:36:52.897Z,22.50
2018-05-23T09:39:20.065Z,22.50
2018-05-23T09:41:46.529Z,22.50
2018-05-23T09:44:12.962Z,22.30
2018-05-23T09:46:39.403Z,22.20
2018-05-23T09:49:05.827Z,22.50
2018-05-23T09:51:32.256Z,22.80
2018-05-23T09:53:58.692Z,22.50
2018-05-23T09:56:30.208Z,22.30
2018-05-23T09:58:57.396Z,22.70
2018-05-23T10:01:23.841Z,22.60
2018-05-23T10:03:50.267Z,22.70
2018-05-23T10:06:16.734Z,22.90
2018-05-23T10:08:44.112Z,23.30
2018-05-23T10:11:11.293Z,23.20
2018-05-23T10:13:37.730Z,23.10
2018-05-23T10:16:04.209Z,23.20
2018-05-23T10:18:31.413Z,23.50
2018-05-23T10:20:57.843Z,23.50
2018-05-23T10:23:24.287Z,23.60
2018-05-23T10:25:50.733Z,23.60
2018-05-23T10:28:17.165Z,23.70
2018-05-23T10:30:43.586Z,23.80
2018-05-23T10:33:10.007Z,24.00
2018-05-23T10:35:36.445Z,24.00
2018-05-23T10:38:02.893Z,24.00
2018-05-23T10:40:29.373Z,24.30
2018-05-23T10:42:56.548Z,24.80
2018-05-23T10:45:22.975Z,24.80
2018-05-23T10:47:50.152Z,25.00
2018-05-23T10:50:16.587Z,24.90
2018-05-23T10:52:43.030Z,24.70
2018-05-23T10:55:09.473Z,24.70
2018-05-23T10:57:35.913Z,24.50
2018-05-23T11:00:02.512Z,24.50
2018-05-23T11:02:28.864Z,24.70
2018-05-23T11:04:55.314Z,25.10
2018-05-23T11:07:21.756Z,25.30
2018-05-23T11:09:48.175Z,25.30
2018-05-23T11:12:14.622Z,25.10
2018-05-23T11:14:41.054Z,25.50
2018-05-23T11:17:07.475Z,25.30
2018-05-23T11:19:33.890Z,25.30
2018-05-23T11:22:00.329Z,25.20
2018-05-23T11:24:26.787Z,25.30
2018-05-23T11:26:53.270Z,25.10
2018-05-23T11:29:27.345Z,25.50
2018-05-23T11:31:53.818Z,25.40
2018-05-23T11:34:20.986Z,25.10
2018-05-23T11:36:47.404Z,25.10
2018-05-23T11:39:13.841Z,24.90
2018-05-23T11:41:40.264Z,24.90
2018-05-23T11:44:07.425Z,24.70
2018-05-23T11:46:33.912Z,24.70
2018-05-23T11:49:00.352Z,24.70
2018-05-23T11:51:28.283Z,24.80
2018-05-23T11:54:01.860Z,24.80
2018-05-23T11:56:28.297Z,25.00
2018-05-23T11:58:55.462Z,25.30
2018-05-23T12:01:21.893Z,25.20
2018-05-23T12:03:48.352Z,25.60
2018-05-23T12:06:14.785Z,25.80
2018-05-23T12:08:41.812Z,25.80
2018-05-23T12:11:08.249Z,25.60
2018-05-23T12:13:34.713Z,25.60
2018-05-23T12:16:01.143Z,25.30
2018-05-23T12:18:27.577Z,25.10
2018-05-23T12:20:54.012Z,24.90
2018-05-23T12:23:20.455Z,25.10
2018-05-23T12:25:46.905Z,25.60
2018-05-23T12:28:13.354Z,25.60
2018-05-23T12:30:40.521Z,26.50
2018-05-23T12:33:06.934Z,26.40
2018-05-23T12:35:34.087Z,26.70
2018-05-23T12:38:01.260Z,26.60
2018-05-23T12:40:27.776Z,26.60
2018-05-23T12:42:54.937Z,27.00
2018-05-23T12:45:21.359Z,26.90
2018-05-23T12:47:48.530Z,26.40
2018-05-23T12:50:14.981Z,26.40
2018-05-23T12:52:42.167Z,26.50
2018-05-23T12:55:08.597Z,26.50
2018-05-23T12:57:35.792Z,27.00
2018-05-23T13:00:02.286Z,27.00
2018-05-23T13:02:28.737Z,26.80
2018-05-23T13:04:55.913Z,26.60
2018-05-23T13:07:22.358Z,26.60
2018-05-23T13:09:48.785Z,26.10
2018-05-23T13:12:15.205Z,26.10
2018-05-23T13:14:41.655Z,25.90
2018-05-23T13:17:08.088Z,26.10
2018-05-23T13:19:35.269Z,25.80
2018-05-23T13:22:01.710Z,25.80
2018-05-23T13:24:28.119Z,25.70
2018-05-23T13:26:54.568Z,25.40
2018-05-23T13:29:21.025Z,25.40
2018-05-23T13:31:47.500Z,25.50
2018-05-23T13:34:13.919Z,25.60
2018-05-23T13:36:41.090Z,25.90
2018-05-23T13:39:07.600Z,25.90
2018-05-23T13:41:34.776Z,26.10
2018-05-23T13:44:01.857Z,26.00
2018-05-23T13:46:28.307Z,26.10
2018-05-23T13:48:54.738Z,26.50
2018-05-23T13:51:21.172Z,26.30
2018-05-23T13:53:49.181Z,26.20
2018-05-23T13:56:15.943Z,26.10
2018-05-23T13:58:42.369Z,26.10
2018-05-23T14:01:08.802Z,26.20
2018-05-23T14:03:35.220Z,26.10
2018-05-23T14:06:04.219Z,26.00
2018-05-23T14:08:30.681Z,26.00
2018-05-23T14:10:57.121Z,25.90
2018-05-23T14:13:24.082Z,26.00
2018-05-23T14:15:50.490Z,26.20
2018-05-23T14:18:16.960Z,26.10
2018-05-23T14:20:43.397Z,26.40
2018-05-23T14:23:09.983Z,26.50
2018-05-23T14:25:36.424Z,26.30
2018-05-23T14:28:02.868Z,26.00
2018-05-23T14:30:29.299Z,25.80
2018-05-23T14:32:55.716Z,25.80
2018-05-23T14:35:22.129Z,26.00
2018-05-23T14:37:49.276Z,26.10
2018-05-23T14:40:16.460Z,26.00
2018-05-23T14:42:42.894Z,26.00
2018-05-23T14:45:09.316Z,26.00
2018-05-23T14:47:35.755Z,25.80
2018-05-23T14:50:02.261Z,26.10
2018-05-23T14:52:29.423Z,25.80
2018-05-23T14:54:55.854Z,25.80
2018-05-23T14:57:22.265Z,26.00
2018-05-23T14:59:48.676Z,25.80
2018-05-23T15:02:15.101Z,25.70
2018-05-23T15:04:41.556Z,25.70
2018-05-23T15:07:08.047Z,25.90
2018-05-23T15:09:34.519Z,25.90
2018-05-23T15:12:00.951Z,26.10
2018-05-23T15:14:28.210Z,26.00
2018-05-23T15:16:54.576Z,25.90
2018-05-23T15:19:21.740Z,26.00
2018-05-23T15:21:48.241Z,26.00
2018-05-23T15:24:15.401Z,26.20
2018-05-23T15:26:42.579Z,26.20
2018-05-23T15:29:09.030Z,26.20
2018-05-23T15:31:35.600Z,26.10
2018-05-23T15:34:02.708Z,26.60
2018-05-23T15:36:29.141Z,26.50
2018-05-23T15:38:55.562Z,26.60
2018-05-23T15:41:21.965Z,26.60
2018-05-23T15:43:49.147Z,26.50
2018-05-23T15:46:15.556Z,26.50
2018-05-23T15:48:42.738Z,26.90
2018-05-23T15:51:09.212Z,26.90
2018-05-23T15:53:35.656Z,26.40
2018-05-23T15:56:02.100Z,26.40
2018-05-23T15:58:28.521Z,26.60
2018-05-23T16:00:54.934Z,26.50
2018-05-23T16:03:21.354Z,26.60
2018-05-23T16:05:47.789Z,26.50
2018-05-23T16:08:14.216Z,26.50
2018-05-23T16:10:40.691Z,26.50
2018-05-23T16:13:07.883Z,26.40
2018-05-23T16:15:34.319Z,26.40
2018-05-23T16:18:00.768Z,26.50
2018-05-23T16:20:27.261Z,26.40
2018-05-23T16:22:54.436Z,26.50
2018-05-23T16:25:20.886Z,26.50
2018-05-23T16:27:47.320Z,26.40
2018-05-23T16:30:13.744Z,26.20
2018-05-23T16:32:40.199Z,26.20
2018-05-23T16:35:06.630Z,26.10
2018-05-23T16:37:33.044Z,26.00
2018-05-23T16:39:59.440Z,26.10
2018-05-23T16:42:25.826Z,25.90
2018-05-23T16:44:52.222Z,25.60
2018-05-23T16:47:19.334Z,25.60
2018-05-23T16:49:46.477Z,25.60
2018-05-23T16:52:12.942Z,25.60
2018-05-23T16:54:39.286Z,25.50
2018-05-23T16:57:06.426Z,25.60
2018-05-23T16:59:32.808Z,25.60
2018-05-23T17:01:59.202Z,25.50
2018-05-23T17:04:25.646Z,25.30
2018-05-23T17:06:52.020Z,25.40
2018-05-23T17:09:18.424Z,25.40
2018-05-23T17:11:44.864Z,25.40
2018-05-23T17:14:11.265Z,25.30
2018-05-23T17:16:38.505Z,25.20
2018-05-23T17:19:05.692Z,25.20
2018-05-23T17:21:32.100Z,25.10
2018-05-23T17:23:58.868Z,25.00
2018-05-23T17:26:25.244Z,24.90
2018-05-23T17:28:51.638Z,24.90
2018-05-23T17:31:18.034Z,24.80
2018-05-23T17:33:45.230Z,24.50
2018-05-23T17:36:11.641Z,24.50
2018-05-23T17:38:38.835Z,24.50
2018-05-23T17:41:05.241Z,24.40
2018-05-23T17:43:31.643Z,24.30
2018-05-23T17:45:58.812Z,24.20
2018-05-23T17:48:25.214Z,24.20
2018-05-23T17:50:52.845Z,23.90
2018-05-23T17:53:19.234Z,23.90
2018-05-23T17:55:45.636Z,23.80
2018-05-23T17:58:12.038Z,23.80
2018-05-23T18:00:38.445Z,23.70
2018-05-23T18:03:04.840Z,23.40
2018-05-23T18:05:31.993Z,23.70
2018-05-23T18:07:58.450Z,23.70
2018-05-23T18:10:24.863Z,23.70
2018-05-23T18:12:52.007Z,23.70
2018-05-23T18:15:19.183Z,23.70
2018-05-23T18:17:45.647Z,23.70
2018-05-23T18:20:12.705Z,23.70
2018-05-23T18:22:39.114Z,23.70
2018-05-23T18:25:06.304Z,23.50
2018-05-23T18:27:32.691Z,23.50
2018-05-23T18:29:59.092Z,23.50
2018-05-23T18:32:26.243Z,23.40
2018-05-23T18:34:53.391Z,23.30
2018-05-23T18:37:20.539Z,23.20
2018-05-23T18:39:47.667Z,23.20
2018-05-23T18:42:14.074Z,23.20
2018-05-23T18:44:40.478Z,23.10
2018-05-23T18:47:06.886Z,23.10
2018-05-23T18:49:34.035Z,22.90
2018-05-23T18:52:01.164Z,22.80
2018-05-23T18:54:28.325Z,22.70
2018-05-23T18:56:55.500Z,22.70
2018-05-23T18:59:23.239Z,22.60
2018-05-23T19:01:51.112Z,22.50
2018-05-23T19:04:18.268Z,22.40
2018-05-23T19:06:45.409Z,22.40
2018-05-23T19:09:12.550Z,22.30
2018-05-23T19:11:38.934Z,22.20
2018-05-23T19:14:05.327Z,22.20
2018-05-23T19:16:32.465Z,22.10
2018-05-23T19:18:58.858Z,22.00
2018-05-23T19:21:25.277Z,21.90
2018-05-23T19:23:51.681Z,21.90
2018-05-23T19:26:18.967Z,21.90
2018-05-23T19:28:45.384Z,21.80
2018-05-23T19:31:11.807Z,21.80
2018-05-23T19:33:39.235Z,21.80
2018-05-23T19:36:05.656Z,21.70
2018-05-23T19:38:32.510Z,21.60
2018-05-23T19:40:58.915Z,21.60
2018-05-23T19:43:25.318Z,21.60
2018-05-23T19:45:51.724Z,21.60
2018-05-23T19:48:18.883Z,21.60
2018-05-23T19:50:46.064Z,21.50
2018-05-23T19:53:12.487Z,21.50
2018-05-23T19:55:38.888Z,21.30
2018-05-23T19:58:05.278Z,21.30
2018-05-23T20:00:31.672Z,21.30
2018-05-23T20:02:58.832Z,21.20
2018-05-23T20:05:25.243Z,21.20
2018-05-23T20:07:52.408Z,21.20
2018-05-23T20:10:18.809Z,21.20
2018-05-23T20:12:45.228Z,21.20
2018-05-23T20:15:11.651Z,21.20
2018-05-23T20:17:39.546Z,21.20
2018-05-23T20:20:05.940Z,21.20
2018-05-23T20:22:32.336Z,21.20
2018-05-23T20:24:59.479Z,21.00
2018-05-23T20:27:26.628Z,20.90
2018-05-23T20:29:53.838Z,20.90
2018-05-23T20:32:20.244Z,20.90
2018-05-23T20:34:46.650Z,20.80
2018-05-23T20:37:13.816Z,20.80
2018-05-23T20:39:40.259Z,20.80
2018-05-23T20:42:06.667Z,20.70
2018-05-23T20:44:33.806Z,20.60
2018-05-23T20:47:00.209Z,20.50
2018-05-23T20:49:26.619Z,20.60
2018-05-23T20:51:53.058Z,20.60
2018-05-23T20:54:19.532Z,20.60
2018-05-23T20:56:45.938Z,20.60
2018-05-23T20:59:12.344Z,20.40
2018-05-23T21:01:39.711Z,20.30
2018-05-23T21:04:06.127Z,20.40
2018-05-23T21:06:32.820Z,20.50
2018-05-23T21:09:00.706Z,20.50
2018-05-23T21:11:27.864Z,20.50
2018-05-23T21:13:55.029Z,20.60
2018-05-23T21:16:21.468Z,20.50
2018-05-23T21:18:47.884Z,20.50
2018-05-23T21:21:14.306Z,20.30
2018-05-23T21:23:41.485Z,20.50
2018-05-23T21:26:07.915Z,20.40
2018-05-23T21:28:34.314Z,20.50
2018-05-23T21:31:01.474Z,20.40
2018-05-23T21:33:28.691Z,20.50
2018-05-23T21:35:55.079Z,20.40
2018-05-23T21:38:21.527Z,20.30
2018-05-23T21:40:48.628Z,20.20
2018-05-23T21:43:15.757Z,20.30
2018-05-23T21:45:42.156Z,20.30
2018-05-23T21:48:08.581Z,20.20
2018-05-23T21:50:34.990Z,20.10
2018-05-23T21:53:02.135Z,20.10
2018-05-23T21:55:29.265Z,20.10
2018-05-23T21:57:55.676Z,20.10
2018-05-23T22:00:22.062Z,20.00
2018-05-23T22:02:49.200Z,20.00
2018-05-23T22:05:16.353Z,20.00
2018-05-23T22:07:43.547Z,20.10
2018-05-23T22:10:09.956Z,20.10
2018-05-23T22:12:36.377Z,20.10
2018-05-23T22:15:02.822Z,20.10
2018-05-23T22:17:29.244Z,20.10
2018-05-23T22:19:56.383Z,20.10
2018-05-23T22:22:23.521Z,20.10
2018-05-23T22:24:50.662Z,20.10
2018-05-23T22:27:17.815Z,20.00
2018-05-23T22:29:45.679Z,20.00
2018-05-23T22:32:12.059Z,20.00
2018-05-23T22:34:38.535Z,20.00
2018-05-23T22:37:05.701Z,19.90
2018-05-23T22:39:32.102Z,19.90
2018-05-23T22:41:58.510Z,19.80
2018-05-23T22:44:24.915Z,19.90
2018-05-23T22:46:52.054Z,19.80
2018-05-23T22:49:18.542Z,19.70
2018-05-23T22:51:44.906Z,19.70
2018-05-23T22:54:11.298Z,19.80
2018-05-23T22:56:37.694Z,19.80
2018-05-23T22:59:04.859Z,19.60
2018-05-23T23:01:31.979Z,19.50
2018-05-23T23:03:58.366Z,19.50
2018-05-23T23:06:24.771Z,19.60
2018-05-23T23:08:51.904Z,19.70
2018-05-23T23:11:19.036Z,19.70
2018-05-23T23:13:45.454Z,19.70
2018-05-23T23:16:13.346Z,19.80
2018-05-23T23:18:41.240Z,19.70
2018-05-23T23:21:07.627Z,19.70
2018-05-23T23:23:34.015Z,19.80
2018-05-23T23:26:00.431Z,19.80
2018-05-23T23:28:27.588Z,19.70
2018-05-23T23:30:54.704Z,19.70
2018-05-23T23:33:22.594Z,19.60
2018-05-23T23:35:49.745Z,19.60
2018-05-23T23:38:16.895Z,19.50
2018-05-23T23:40:44.300Z,19.50
2018-05-23T23:43:10.723Z,19.50
2018-05-23T23:45:37.108Z,19.50
2018-05-23T23:48:04.258Z,19.40
2018-05-23T23:50:31.395Z,19.30
2018-05-23T23:52:57.850Z,19.30
2018-05-23T23:55:24.257Z,19.20
2018-05-23T23:57:50.666Z,19.10
